sensor_id;sensor_type;location;lat;lon;timestamp;P1;durP1;ratioP1;P2;durP2;ratioP2
57191;SDS011;43052;52.588;13.396;2023-08-17T00:02:38;6.38;;;4.20;;
57191;SDS011;43052;52.588;13.396;2023-08-17T00:14:45;7.88;;;4.45;;
57191;SDS011;43052;52.588;13.396;2023-08-17T00:47:51;8.13;;;4.33;;
57191;SDS011;43052;52.588;13.396;2023-08-17T01:28:22;7.53;;;4.80;;
57191;SDS011;43052;52.588;13.396;2023-08-17T01:38:00;6.35;;;4.90;;
57191;SDS011;43052;52.588;13.396;2023-08-17T01:40:35;7.85;;;5.55;;
57191;SDS011;43052;52.588;13.396;2023-08-17T01:43:22;8.37;;;5.70;;
57191;SDS011;43052;52.588;13.396;2023-08-17T01:54:10;8.55;;;5.20;;
57191;SDS011;43052;52.588;13.396;2023-08-17T02:04:47;7.10;;;5.07;;
57191;SDS011;43052;52.588;13.396;2023-08-17T02:15:48;8.02;;;4.55;;
57191;SDS011;43052;52.588;13.396;2023-08-17T02:18:13;7.57;;;4.80;;
57191;SDS011;43052;52.588;13.396;2023-08-17T02:20:39;6.50;;;4.93;;
57191;SDS011;43052;52.588;13.396;2023-08-17T02:23:13;7.50;;;5.32;;
57191;SDS011;43052;52.588;13.396;2023-08-17T02:51:09;7.22;;;4.30;;
57191;SDS011;43052;52.588;13.396;2023-08-17T02:53:34;6.78;;;3.80;;
57191;SDS011;43052;52.588;13.396;2023-08-17T02:56:10;5.30;;;4.00;;
57191;SDS011;43052;52.588;13.396;2023-08-17T02:58:39;6.38;;;4.03;;
57191;SDS011;43052;52.588;13.396;2023-08-17T03:01:30;6.47;;;4.25;;
57191;SDS011;43052;52.588;13.396;2023-08-17T03:04:06;6.20;;;3.95;;
57191;SDS011;43052;52.588;13.396;2023-08-17T03:06:39;5.25;;;3.85;;
57191;SDS011;43052;52.588;13.396;2023-08-17T03:35:22;3.80;;;3.13;;
57191;SDS011;43052;52.588;13.396;2023-08-17T03:37:47;5.28;;;3.25;;
57191;SDS011;43052;52.588;13.396;2023-08-17T03:40:12;4.07;;;3.10;;
57191;SDS011;43052;52.588;13.396;2023-08-17T03:42:37;3.85;;;3.03;;
57191;SDS011;43052;52.588;13.396;2023-08-17T03:45:03;6.70;;;3.30;;
57191;SDS011;43052;52.588;13.396;2023-08-17T03:47:28;6.60;;;3.30;;
57191;SDS011;43052;52.588;13.396;2023-08-17T03:49:54;5.03;;;3.13;;
57191;SDS011;43052;52.588;13.396;2023-08-17T03:52:19;4.35;;;2.83;;
57191;SDS011;43052;52.588;13.396;2023-08-17T03:54:45;4.10;;;2.95;;
57191;SDS011;43052;52.588;13.396;2023-08-17T03:57:11;4.20;;;2.95;;
57191;SDS011;43052;52.588;13.396;2023-08-17T03:59:37;4.53;;;3.22;;
57191;SDS011;43052;52.588;13.396;2023-08-17T04:02:03;4.28;;;2.97;;
57191;SDS011;43052;52.588;13.396;2023-08-17T04:04:28;5.20;;;3.00;;
57191;SDS011;43052;52.588;13.396;2023-08-17T04:06:54;4.78;;;2.90;;
57191;SDS011;43052;52.588;13.396;2023-08-17T04:09:19;4.10;;;2.92;;
57191;SDS011;43052;52.588;13.396;2023-08-17T04:11:44;6.10;;;3.15;;
57191;SDS011;43052;52.588;13.396;2023-08-17T04:14:13;5.53;;;3.08;;
57191;SDS011;43052;52.588;13.396;2023-08-17T04:16:39;3.97;;;2.80;;
57191;SDS011;43052;52.588;13.396;2023-08-17T04:19:05;5.38;;;3.20;;
57191;SDS011;43052;52.588;13.396;2023-08-17T04:21:33;4.35;;;3.10;;
57191;SDS011;43052;52.588;13.396;2023-08-17T04:23:59;8.18;;;3.10;;
57191;SDS011;43052;52.588;13.396;2023-08-17T04:26:27;4.60;;;2.80;;
57191;SDS011;43052;52.588;13.396;2023-08-17T04:28:53;5.43;;;2.95;;
57191;SDS011;43052;52.588;13.396;2023-08-17T04:31:24;4.95;;;3.40;;
57191;SDS011;43052;52.588;13.396;2023-08-17T04:33:49;4.22;;;2.83;;
57191;SDS011;43052;52.588;13.396;2023-08-17T04:36:14;6.38;;;3.55;;
57191;SDS011;43052;52.588;13.396;2023-08-17T04:38:40;5.55;;;3.50;;
57191;SDS011;43052;52.588;13.396;2023-08-17T04:41:05;5.68;;;3.40;;
57191;SDS011;43052;52.588;13.396;2023-08-17T04:43:31;5.88;;;3.28;;
57191;SDS011;43052;52.588;13.396;2023-08-17T04:45:56;5.53;;;3.00;;
57191;SDS011;43052;52.588;13.396;2023-08-17T04:48:21;5.70;;;3.00;;
57191;SDS011;43052;52.588;13.396;2023-08-17T04:50:47;4.40;;;2.90;;
57191;SDS011;43052;52.588;13.396;2023-08-17T04:53:13;5.82;;;2.92;;
57191;SDS011;43052;52.588;13.396;2023-08-17T04:55:38;4.78;;;2.95;;
57191;SDS011;43052;52.588;13.396;2023-08-17T04:58:03;6.93;;;3.10;;
57191;SDS011;43052;52.588;13.396;2023-08-17T05:00:29;7.80;;;3.25;;
57191;SDS011;43052;52.588;13.396;2023-08-17T05:02:55;5.63;;;3.20;;
57191;SDS011;43052;52.588;13.396;2023-08-17T05:05:20;5.15;;;3.20;;
57191;SDS011;43052;52.588;13.396;2023-08-17T05:07:54;5.00;;;3.03;;
57191;SDS011;43052;52.588;13.396;2023-08-17T05:10:20;4.35;;;2.95;;
57191;SDS011;43052;52.588;13.396;2023-08-17T05:12:45;5.22;;;3.05;;
57191;SDS011;43052;52.588;13.396;2023-08-17T05:15:11;5.57;;;3.15;;
57191;SDS011;43052;52.588;13.396;2023-08-17T05:17:46;4.15;;;2.83;;
57191;SDS011;43052;52.588;13.396;2023-08-17T05:22:56;4.53;;;2.70;;
57191;SDS011;43052;52.588;13.396;2023-08-17T05:25:21;6.15;;;2.92;;
57191;SDS011;43052;52.588;13.396;2023-08-17T05:27:47;4.95;;;2.95;;
57191;SDS011;43052;52.588;13.396;2023-08-17T05:30:14;5.30;;;2.88;;
57191;SDS011;43052;52.588;13.396;2023-08-17T05:35:08;4.32;;;2.50;;
57191;SDS011;43052;52.588;13.396;2023-08-17T05:37:33;6.47;;;2.70;;
57191;SDS011;43052;52.588;13.396;2023-08-17T05:39:58;4.00;;;3.00;;
57191;SDS011;43052;52.588;13.396;2023-08-17T05:42:24;5.78;;;3.03;;
57191;SDS011;43052;52.588;13.396;2023-08-17T05:44:49;6.45;;;2.90;;
57191;SDS011;43052;52.588;13.396;2023-08-17T05:47:15;7.25;;;3.00;;
57191;SDS011;43052;52.588;13.396;2023-08-17T05:49:42;4.22;;;2.97;;
57191;SDS011;43052;52.588;13.396;2023-08-17T05:52:08;5.88;;;3.30;;
57191;SDS011;43052;52.588;13.396;2023-08-17T05:54:33;5.93;;;2.60;;
57191;SDS011;43052;52.588;13.396;2023-08-17T05:56:58;3.72;;;2.80;;
57191;SDS011;43052;52.588;13.396;2023-08-17T05:59:24;5.15;;;2.70;;
57191;SDS011;43052;52.588;13.396;2023-08-17T06:01:49;3.53;;;2.60;;
57191;SDS011;43052;52.588;13.396;2023-08-17T06:04:14;5.30;;;2.83;;
57191;SDS011;43052;52.588;13.396;2023-08-17T06:06:39;4.68;;;2.70;;
57191;SDS011;43052;52.588;13.396;2023-08-17T06:09:05;6.25;;;2.78;;
57191;SDS011;43052;52.588;13.396;2023-08-17T06:11:32;6.05;;;2.70;;
57191;SDS011;43052;52.588;13.396;2023-08-17T06:13:58;3.75;;;2.60;;
57191;SDS011;43052;52.588;13.396;2023-08-17T06:16:23;5.20;;;2.78;;
57191;SDS011;43052;52.588;13.396;2023-08-17T06:18:48;5.68;;;2.70;;
57191;SDS011;43052;52.588;13.396;2023-08-17T06:21:14;4.68;;;2.50;;
57191;SDS011;43052;52.588;13.396;2023-08-17T06:23:39;3.00;;;2.38;;
57191;SDS011;43052;52.588;13.396;2023-08-17T06:26:05;3.30;;;2.25;;
57191;SDS011;43052;52.588;13.396;2023-08-17T06:28:30;6.78;;;2.80;;
57191;SDS011;43052;52.588;13.396;2023-08-17T06:30:55;4.82;;;2.53;;
57191;SDS011;43052;52.588;13.396;2023-08-17T06:33:22;3.72;;;2.42;;
57191;SDS011;43052;52.588;13.396;2023-08-17T06:35:50;4.32;;;2.53;;
57191;SDS011;43052;52.588;13.396;2023-08-17T06:38:16;5.05;;;2.80;;
57191;SDS011;43052;52.588;13.396;2023-08-17T06:40:41;4.47;;;2.45;;
57191;SDS011;43052;52.588;13.396;2023-08-17T06:43:07;4.95;;;2.80;;
57191;SDS011;43052;52.588;13.396;2023-08-17T06:45:32;3.33;;;2.30;;
57191;SDS011;43052;52.588;13.396;2023-08-17T06:47:58;4.88;;;2.80;;
57191;SDS011;43052;52.588;13.396;2023-08-17T06:50:24;4.53;;;3.00;;
57191;SDS011;43052;52.588;13.396;2023-08-17T06:52:50;4.25;;;2.83;;
57191;SDS011;43052;52.588;13.396;2023-08-17T06:55:18;4.45;;;2.53;;
57191;SDS011;43052;52.588;13.396;2023-08-17T06:57:58;4.15;;;2.83;;
57191;SDS011;43052;52.588;13.396;2023-08-17T07:00:30;3.90;;;2.42;;
57191;SDS011;43052;52.588;13.396;2023-08-17T07:03:14;5.53;;;2.65;;
57191;SDS011;43052;52.588;13.396;2023-08-17T07:05:39;5.00;;;2.50;;
57191;SDS011;43052;52.588;13.396;2023-08-17T07:08:05;5.97;;;2.40;;
57191;SDS011;43052;52.588;13.396;2023-08-17T07:10:30;5.85;;;2.78;;
57191;SDS011;43052;52.588;13.396;2023-08-17T07:13:33;4.40;;;2.60;;
57191;SDS011;43052;52.588;13.396;2023-08-17T07:18:50;4.60;;;2.58;;
57191;SDS011;43052;52.588;13.396;2023-08-17T07:21:15;3.92;;;2.22;;
57191;SDS011;43052;52.588;13.396;2023-08-17T07:23:47;3.53;;;2.33;;
57191;SDS011;43052;52.588;13.396;2023-08-17T07:26:13;2.72;;;2.08;;
57191;SDS011;43052;52.588;13.396;2023-08-17T07:28:38;2.78;;;2.00;;
57191;SDS011;43052;52.588;13.396;2023-08-17T07:31:03;7.03;;;2.50;;
57191;SDS011;43052;52.588;13.396;2023-08-17T07:33:38;5.70;;;2.40;;
57191;SDS011;43052;52.588;13.396;2023-08-17T07:36:04;4.13;;;2.58;;
57191;SDS011;43052;52.588;13.396;2023-08-17T07:38:29;4.55;;;2.35;;
57191;SDS011;43052;52.588;13.396;2023-08-17T07:40:55;5.60;;;2.90;;
57191;SDS011;43052;52.588;13.396;2023-08-17T07:43:20;4.18;;;2.50;;
57191;SDS011;43052;52.588;13.396;2023-08-17T07:45:45;3.30;;;2.55;;
57191;SDS011;43052;52.588;13.396;2023-08-17T07:48:10;4.57;;;2.67;;
57191;SDS011;43052;52.588;13.396;2023-08-17T07:50:35;5.97;;;2.67;;
57191;SDS011;43052;52.588;13.396;2023-08-17T07:53:01;4.43;;;2.70;;
57191;SDS011;43052;52.588;13.396;2023-08-17T07:55:26;3.63;;;2.72;;
57191;SDS011;43052;52.588;13.396;2023-08-17T07:57:52;5.28;;;2.70;;
57191;SDS011;43052;52.588;13.396;2023-08-17T08:00:18;6.28;;;2.72;;
57191;SDS011;43052;52.588;13.396;2023-08-17T08:02:43;6.07;;;2.53;;
57191;SDS011;43052;52.588;13.396;2023-08-17T08:05:08;5.78;;;2.55;;
57191;SDS011;43052;52.588;13.396;2023-08-17T08:07:33;3.83;;;2.58;;
57191;SDS011;43052;52.588;13.396;2023-08-17T08:09:59;3.92;;;2.55;;
57191;SDS011;43052;52.588;13.396;2023-08-17T08:12:24;5.97;;;2.85;;
57191;SDS011;43052;52.588;13.396;2023-08-17T08:14:51;3.50;;;2.38;;
57191;SDS011;43052;52.588;13.396;2023-08-17T08:17:20;3.83;;;2.40;;
57191;SDS011;43052;52.588;13.396;2023-08-17T08:19:45;3.80;;;2.40;;
57191;SDS011;43052;52.588;13.396;2023-08-17T08:22:10;3.60;;;2.80;;
57191;SDS011;43052;52.588;13.396;2023-08-17T08:24:36;5.28;;;3.08;;
57191;SDS011;43052;52.588;13.396;2023-08-17T08:27:01;4.40;;;3.00;;
57191;SDS011;43052;52.588;13.396;2023-08-17T08:29:32;4.95;;;2.95;;
57191;SDS011;43052;52.588;13.396;2023-08-17T08:32:00;5.68;;;3.53;;
57191;SDS011;43052;52.588;13.396;2023-08-17T08:34:27;4.60;;;3.25;;
57191;SDS011;43052;52.588;13.396;2023-08-17T08:36:58;4.07;;;2.93;;
57191;SDS011;43052;52.588;13.396;2023-08-17T08:39:26;4.20;;;2.70;;
57191;SDS011;43052;52.588;13.396;2023-08-17T08:41:52;4.53;;;3.05;;
57191;SDS011;43052;52.588;13.396;2023-08-17T08:44:18;3.85;;;3.03;;
57191;SDS011;43052;52.588;13.396;2023-08-17T08:46:44;4.07;;;2.72;;
57191;SDS011;43052;52.588;13.396;2023-08-17T08:49:10;4.13;;;3.13;;
57191;SDS011;43052;52.588;13.396;2023-08-17T08:51:37;4.03;;;2.90;;
57191;SDS011;43052;52.588;13.396;2023-08-17T08:54:07;4.38;;;3.25;;
57191;SDS011;43052;52.588;13.396;2023-08-17T08:56:37;3.72;;;3.10;;
57191;SDS011;43052;52.588;13.396;2023-08-17T08:59:07;4.55;;;3.00;;
57191;SDS011;43052;52.588;13.396;2023-08-17T09:01:33;4.63;;;3.38;;
57191;SDS011;43052;52.588;13.396;2023-08-17T09:03:59;6.13;;;3.30;;
57191;SDS011;43052;52.588;13.396;2023-08-17T09:06:30;3.55;;;2.90;;
57191;SDS011;43052;52.588;13.396;2023-08-17T09:08:57;5.45;;;3.53;;
57191;SDS011;43052;52.588;13.396;2023-08-17T09:11:23;5.05;;;3.22;;
57191;SDS011;43052;52.588;13.396;2023-08-17T09:13:49;4.53;;;3.10;;
57191;SDS011;43052;52.588;13.396;2023-08-17T09:16:14;5.45;;;3.50;;
57191;SDS011;43052;52.588;13.396;2023-08-17T09:18:40;5.40;;;3.47;;
57191;SDS011;43052;52.588;13.396;2023-08-17T09:21:05;5.18;;;3.65;;
57191;SDS011;43052;52.588;13.396;2023-08-17T09:23:30;6.20;;;3.38;;
57191;SDS011;43052;52.588;13.396;2023-08-17T09:25:56;4.53;;;3.33;;
57191;SDS011;43052;52.588;13.396;2023-08-17T09:28:23;4.13;;;3.60;;
57191;SDS011;43052;52.588;13.396;2023-08-17T09:33:22;5.28;;;3.50;;
57191;SDS011;43052;52.588;13.396;2023-08-17T09:35:53;4.97;;;3.80;;
57191;SDS011;43052;52.588;13.396;2023-08-17T09:38:19;5.35;;;3.67;;
57191;SDS011;43052;52.588;13.396;2023-08-17T09:40:45;6.07;;;3.60;;
57191;SDS011;43052;52.588;13.396;2023-08-17T09:43:11;4.78;;;3.65;;
57191;SDS011;43052;52.588;13.396;2023-08-17T09:45:37;5.82;;;3.67;;
57191;SDS011;43052;52.588;13.396;2023-08-17T09:48:03;4.90;;;3.50;;
57191;SDS011;43052;52.588;13.396;2023-08-17T09:50:29;6.97;;;3.60;;
57191;SDS011;43052;52.588;13.396;2023-08-17T09:52:54;4.10;;;3.47;;
57191;SDS011;43052;52.588;13.396;2023-08-17T09:55:21;6.07;;;3.60;;
57191;SDS011;43052;52.588;13.396;2023-08-17T09:57:50;8.13;;;3.58;;
57191;SDS011;43052;52.588;13.396;2023-08-17T10:00:19;8.55;;;4.22;;
57191;SDS011;43052;52.588;13.396;2023-08-17T10:02:45;5.97;;;3.53;;
57191;SDS011;43052;52.588;13.396;2023-08-17T10:05:15;3.50;;;3.08;;
57191;SDS011;43052;52.588;13.396;2023-08-17T10:07:43;6.28;;;3.78;;
57191;SDS011;43052;52.588;13.396;2023-08-17T10:10:15;4.80;;;3.50;;
57191;SDS011;43052;52.588;13.396;2023-08-17T10:12:59;5.72;;;3.70;;
57191;SDS011;43052;52.588;13.396;2023-08-17T10:15:34;3.90;;;3.40;;
57191;SDS011;43052;52.588;13.396;2023-08-17T10:18:22;4.15;;;3.50;;
57191;SDS011;43052;52.588;13.396;2023-08-17T10:21:03;5.45;;;4.07;;
57191;SDS011;43052;52.588;13.396;2023-08-17T10:23:32;7.15;;;4.30;;
57191;SDS011;43052;52.588;13.396;2023-08-17T10:25:58;4.95;;;3.65;;
57191;SDS011;43052;52.588;13.396;2023-08-17T10:28:25;6.00;;;3.75;;
57191;SDS011;43052;52.588;13.396;2023-08-17T10:30:51;5.60;;;3.63;;
57191;SDS011;43052;52.588;13.396;2023-08-17T10:33:18;6.57;;;3.15;;
57191;SDS011;43052;52.588;13.396;2023-08-17T10:35:43;5.18;;;3.90;;
57191;SDS011;43052;52.588;13.396;2023-08-17T10:38:11;4.63;;;3.80;;
57191;SDS011;43052;52.588;13.396;2023-08-17T10:40:38;5.05;;;3.92;;
57191;SDS011;43052;52.588;13.396;2023-08-17T10:43:06;4.90;;;3.83;;
57191;SDS011;43052;52.588;13.396;2023-08-17T10:45:32;5.82;;;4.00;;
57191;SDS011;43052;52.588;13.396;2023-08-17T10:50:30;4.63;;;4.07;;
57191;SDS011;43052;52.588;13.396;2023-08-17T10:52:55;4.85;;;3.80;;
57191;SDS011;43052;52.588;13.396;2023-08-17T10:55:36;6.03;;;4.35;;
57191;SDS011;43052;52.588;13.396;2023-08-17T10:58:03;5.38;;;3.97;;
57191;SDS011;43052;52.588;13.396;2023-08-17T11:00:35;6.45;;;3.80;;
57191;SDS011;43052;52.588;13.396;2023-08-17T11:08:21;4.45;;;3.92;;
57191;SDS011;43052;52.588;13.396;2023-08-17T11:11:13;4.85;;;4.13;;
57191;SDS011;43052;52.588;13.396;2023-08-17T11:13:40;5.70;;;4.93;;
57191;SDS011;43052;52.588;13.396;2023-08-17T11:16:09;6.13;;;3.80;;
57191;SDS011;43052;52.588;13.396;2023-08-17T11:18:36;5.05;;;4.30;;
57191;SDS011;43052;52.588;13.396;2023-08-17T11:21:02;4.93;;;4.18;;
57191;SDS011;43052;52.588;13.396;2023-08-17T11:23:29;5.30;;;4.68;;
57191;SDS011;43052;52.588;13.396;2023-08-17T11:25:56;7.32;;;4.28;;
57191;SDS011;43052;52.588;13.396;2023-08-17T11:28:24;5.03;;;4.30;;
57191;SDS011;43052;52.588;13.396;2023-08-17T11:30:57;4.65;;;4.15;;
57191;SDS011;43052;52.588;13.396;2023-08-17T11:33:25;6.18;;;4.28;;
57191;SDS011;43052;52.588;13.396;2023-08-17T11:35:55;5.28;;;4.22;;
57191;SDS011;43052;52.588;13.396;2023-08-17T11:38:33;5.10;;;4.50;;
57191;SDS011;43052;52.588;13.396;2023-08-17T11:41:00;5.43;;;4.50;;
57191;SDS011;43052;52.588;13.396;2023-08-17T11:43:29;5.28;;;4.28;;
57191;SDS011;43052;52.588;13.396;2023-08-17T11:45:57;5.32;;;4.07;;
57191;SDS011;43052;52.588;13.396;2023-08-17T11:48:23;4.90;;;4.30;;
57191;SDS011;43052;52.588;13.396;2023-08-17T11:50:49;4.90;;;4.03;;
57191;SDS011;43052;52.588;13.396;2023-08-17T11:53:26;6.40;;;4.30;;
57191;SDS011;43052;52.588;13.396;2023-08-17T11:55:58;5.88;;;4.53;;
57191;SDS011;43052;52.588;13.396;2023-08-17T12:02:00;6.53;;;4.15;;
57191;SDS011;43052;52.588;13.396;2023-08-17T12:04:38;5.60;;;4.90;;
57191;SDS011;43052;52.588;13.396;2023-08-17T12:07:06;7.93;;;6.65;;
57191;SDS011;43052;52.588;13.396;2023-08-17T12:09:37;10.95;;;7.45;;
57191;SDS011;43052;52.588;13.396;2023-08-17T12:12:06;6.22;;;4.40;;
57191;SDS011;43052;52.588;13.396;2023-08-17T12:14:31;8.77;;;5.78;;
57191;SDS011;43052;52.588;13.396;2023-08-17T12:16:57;6.53;;;4.70;;
57191;SDS011;43052;52.588;13.396;2023-08-17T12:19:24;6.65;;;5.10;;
57191;SDS011;43052;52.588;13.396;2023-08-17T12:21:49;6.60;;;5.05;;
57191;SDS011;43052;52.588;13.396;2023-08-17T12:24:15;6.95;;;5.03;;
57191;SDS011;43052;52.588;13.396;2023-08-17T12:26:59;8.05;;;5.40;;
57191;SDS011;43052;52.588;13.396;2023-08-17T12:29:49;6.15;;;4.78;;
57191;SDS011;43052;52.588;13.396;2023-08-17T12:32:16;7.15;;;5.03;;
57191;SDS011;43052;52.588;13.396;2023-08-17T12:34:42;5.68;;;4.90;;
57191;SDS011;43052;52.588;13.396;2023-08-17T12:37:11;5.82;;;4.90;;
57191;SDS011;43052;52.588;13.396;2023-08-17T12:39:43;5.95;;;5.10;;
57191;SDS011;43052;52.588;13.396;2023-08-17T12:42:09;5.95;;;5.03;;
57191;SDS011;43052;52.588;13.396;2023-08-17T12:44:34;6.00;;;5.40;;
57191;SDS011;43052;52.588;13.396;2023-08-17T12:46:59;6.10;;;5.50;;
57191;SDS011;43052;52.588;13.396;2023-08-17T12:49:25;6.57;;;5.57;;
57191;SDS011;43052;52.588;13.396;2023-08-17T12:51:50;6.45;;;5.40;;
57191;SDS011;43052;52.588;13.396;2023-08-17T12:54:29;5.90;;;5.25;;
57191;SDS011;43052;52.588;13.396;2023-08-17T12:56:54;7.72;;;5.80;;
57191;SDS011;43052;52.588;13.396;2023-08-17T12:59:19;7.78;;;5.78;;
57191;SDS011;43052;52.588;13.396;2023-08-17T13:01:45;6.63;;;5.45;;
57191;SDS011;43052;52.588;13.396;2023-08-17T13:04:10;6.85;;;6.13;;
57191;SDS011;43052;52.588;13.396;2023-08-17T13:06:35;6.97;;;6.22;;
57191;SDS011;43052;52.588;13.396;2023-08-17T13:09:00;8.13;;;5.80;;
57191;SDS011;43052;52.588;13.396;2023-08-17T13:11:27;6.32;;;5.68;;
57191;SDS011;43052;52.588;13.396;2023-08-17T13:13:52;6.90;;;5.65;;
57191;SDS011;43052;52.588;13.396;2023-08-17T13:16:17;6.78;;;5.10;;
57191;SDS011;43052;52.588;13.396;2023-08-17T13:18:43;6.95;;;5.88;;
57191;SDS011;43052;52.588;13.396;2023-08-17T13:21:08;7.10;;;6.40;;
57191;SDS011;43052;52.588;13.396;2023-08-17T13:23:34;7.20;;;4.93;;
57191;SDS011;43052;52.588;13.396;2023-08-17T13:25:59;5.72;;;5.07;;
57191;SDS011;43052;52.588;13.396;2023-08-17T13:28:24;6.60;;;5.22;;
57191;SDS011;43052;52.588;13.396;2023-08-17T13:30:49;6.30;;;5.27;;
57191;SDS011;43052;52.588;13.396;2023-08-17T13:33:15;6.75;;;5.78;;
57191;SDS011;43052;52.588;13.396;2023-08-17T13:35:41;7.50;;;5.40;;
57191;SDS011;43052;52.588;13.396;2023-08-17T13:38:10;6.18;;;5.57;;
57191;SDS011;43052;52.588;13.396;2023-08-17T13:40:36;6.20;;;5.60;;
57191;SDS011;43052;52.588;13.396;2023-08-17T13:43:08;6.00;;;4.80;;
57191;SDS011;43052;52.588;13.396;2023-08-17T13:45:41;7.10;;;5.57;;
57191;SDS011;43052;52.588;13.396;2023-08-17T13:48:07;6.93;;;5.22;;
57191;SDS011;43052;52.588;13.396;2023-08-17T13:50:36;5.72;;;4.97;;
57191;SDS011;43052;52.588;13.396;2023-08-17T13:53:04;5.85;;;5.05;;
57191;SDS011;43052;52.588;13.396;2023-08-17T13:55:43;6.68;;;5.28;;
57191;SDS011;43052;52.588;13.396;2023-08-17T13:58:09;5.82;;;5.20;;
57191;SDS011;43052;52.588;13.396;2023-08-17T14:00:35;7.15;;;5.50;;
57191;SDS011;43052;52.588;13.396;2023-08-17T14:03:03;6.57;;;5.30;;
57191;SDS011;43052;52.588;13.396;2023-08-17T14:05:31;6.70;;;5.03;;
57191;SDS011;43052;52.588;13.396;2023-08-17T14:08:00;6.45;;;5.25;;
57191;SDS011;43052;52.588;13.396;2023-08-17T14:10:37;7.35;;;5.50;;
57191;SDS011;43052;52.588;13.396;2023-08-17T14:16:37;7.35;;;5.10;;
57191;SDS011;43052;52.588;13.396;2023-08-17T14:19:24;5.63;;;5.00;;
57191;SDS011;43052;52.588;13.396;2023-08-17T14:21:53;6.43;;;5.70;;
57191;SDS011;43052;52.588;13.396;2023-08-17T14:24:37;8.20;;;5.07;;
57191;SDS011;43052;52.588;13.396;2023-08-17T14:30:36;6.18;;;4.82;;
57191;SDS011;43052;52.588;13.396;2023-08-17T14:40:02;5.63;;;4.55;;
57191;SDS011;43052;52.588;13.396;2023-08-17T14:42:36;5.55;;;4.68;;
57191;SDS011;43052;52.588;13.396;2023-08-17T14:45:26;5.23;;;4.73;;
57191;SDS011;43052;52.588;13.396;2023-08-17T14:47:52;5.72;;;4.40;;
57191;SDS011;43052;52.588;13.396;2023-08-17T14:55:34;5.55;;;4.88;;
57191;SDS011;43052;52.588;13.396;2023-08-17T14:58:14;5.97;;;4.40;;
57191;SDS011;43052;52.588;13.396;2023-08-17T15:00:54;6.93;;;4.60;;
57191;SDS011;43052;52.588;13.396;2023-08-17T15:03:31;6.45;;;4.75;;
57191;SDS011;43052;52.588;13.396;2023-08-17T15:06:04;6.70;;;4.47;;
57191;SDS011;43052;52.588;13.396;2023-08-17T15:08:42;6.50;;;4.85;;
57191;SDS011;43052;52.588;13.396;2023-08-17T15:16:28;6.82;;;4.78;;
57191;SDS011;43052;52.588;13.396;2023-08-17T15:18:54;7.15;;;4.80;;
57191;SDS011;43052;52.588;13.396;2023-08-17T15:21:20;5.30;;;4.72;;
57191;SDS011;43052;52.588;13.396;2023-08-17T15:27:11;5.35;;;4.40;;
57191;SDS011;43052;52.588;13.396;2023-08-17T15:34:44;5.20;;;4.55;;
57191;SDS011;43052;52.588;13.396;2023-08-17T15:37:24;5.20;;;3.85;;
57191;SDS011;43052;52.588;13.396;2023-08-17T15:42:53;5.43;;;4.78;;
57191;SDS011;43052;52.588;13.396;2023-08-17T15:57:01;6.97;;;5.05;;
57191;SDS011;43052;52.588;13.396;2023-08-17T16:02:17;5.78;;;4.20;;
57191;SDS011;43052;52.588;13.396;2023-08-17T16:16:59;5.68;;;4.70;;
57191;SDS011;43052;52.588;13.396;2023-08-17T16:19:28;7.38;;;4.43;;
57191;SDS011;43052;52.588;13.396;2023-08-17T16:21:56;5.63;;;4.20;;
57191;SDS011;43052;52.588;13.396;2023-08-17T16:24:22;6.10;;;4.68;;
57191;SDS011;43052;52.588;13.396;2023-08-17T16:26:47;5.90;;;4.70;;
57191;SDS011;43052;52.588;13.396;2023-08-17T16:29:24;6.32;;;4.65;;
57191;SDS011;43052;52.588;13.396;2023-08-17T16:34:26;6.72;;;5.13;;
57191;SDS011;43052;52.588;13.396;2023-08-17T16:36:51;6.38;;;4.90;;
57191;SDS011;43052;52.588;13.396;2023-08-17T16:39:17;5.68;;;4.90;;
57191;SDS011;43052;52.588;13.396;2023-08-17T16:41:49;6.18;;;5.00;;
57191;SDS011;43052;52.588;13.396;2023-08-17T16:44:25;7.85;;;4.95;;
57191;SDS011;43052;52.588;13.396;2023-08-17T16:46:50;7.30;;;5.13;;
57191;SDS011;43052;52.588;13.396;2023-08-17T16:49:24;5.47;;;4.97;;
57191;SDS011;43052;52.588;13.396;2023-08-17T16:51:52;6.32;;;5.00;;
57191;SDS011;43052;52.588;13.396;2023-08-17T16:54:17;5.90;;;5.22;;
57191;SDS011;43052;52.588;13.396;2023-08-17T16:56:42;6.93;;;5.38;;
57191;SDS011;43052;52.588;13.396;2023-08-17T16:59:10;7.22;;;5.18;;
57191;SDS011;43052;52.588;13.396;2023-08-17T17:01:36;7.93;;;5.45;;
57191;SDS011;43052;52.588;13.396;2023-08-17T17:04:01;5.95;;;5.00;;
57191;SDS011;43052;52.588;13.396;2023-08-17T17:06:26;5.63;;;5.03;;
57191;SDS011;43052;52.588;13.396;2023-08-17T17:08:52;7.15;;;5.07;;
57191;SDS011;43052;52.588;13.396;2023-08-17T17:11:18;6.00;;;5.28;;
57191;SDS011;43052;52.588;13.396;2023-08-17T17:13:44;8.65;;;5.53;;
57191;SDS011;43052;52.588;13.396;2023-08-17T17:16:09;7.22;;;5.32;;
57191;SDS011;43052;52.588;13.396;2023-08-17T17:18:35;7.07;;;5.13;;
57191;SDS011;43052;52.588;13.396;2023-08-17T17:21:00;6.80;;;4.97;;
57191;SDS011;43052;52.588;13.396;2023-08-17T17:23:25;6.05;;;5.22;;
57191;SDS011;43052;52.588;13.396;2023-08-17T17:25:57;6.15;;;5.30;;
57191;SDS011;43052;52.588;13.396;2023-08-17T17:28:35;7.03;;;5.38;;
57191;SDS011;43052;52.588;13.396;2023-08-17T17:31:04;7.40;;;5.63;;
57191;SDS011;43052;52.588;13.396;2023-08-17T17:33:30;6.40;;;5.03;;
57191;SDS011;43052;52.588;13.396;2023-08-17T17:35:55;5.93;;;5.32;;
57191;SDS011;43052;52.588;13.396;2023-08-17T17:38:21;7.05;;;5.60;;
57191;SDS011;43052;52.588;13.396;2023-08-17T17:40:46;6.70;;;5.32;;
57191;SDS011;43052;52.588;13.396;2023-08-17T17:43:12;10.15;;;6.10;;
57191;SDS011;43052;52.588;13.396;2023-08-17T17:45:37;6.85;;;5.18;;
57191;SDS011;43052;52.588;13.396;2023-08-17T17:48:03;6.10;;;5.47;;
57191;SDS011;43052;52.588;13.396;2023-08-17T17:50:28;7.28;;;4.65;;
57191;SDS011;43052;52.588;13.396;2023-08-17T17:52:54;7.93;;;5.20;;
57191;SDS011;43052;52.588;13.396;2023-08-17T17:55:19;7.18;;;5.22;;
57191;SDS011;43052;52.588;13.396;2023-08-17T17:58:03;7.95;;;5.75;;
57191;SDS011;43052;52.588;13.396;2023-08-17T18:00:30;5.65;;;4.70;;
57191;SDS011;43052;52.588;13.396;2023-08-17T18:03:14;6.03;;;4.43;;
57191;SDS011;43052;52.588;13.396;2023-08-17T18:09:01;7.13;;;4.40;;
57191;SDS011;43052;52.588;13.396;2023-08-17T18:11:29;5.90;;;4.07;;
57191;SDS011;43052;52.588;13.396;2023-08-17T18:13:56;5.50;;;4.28;;
57191;SDS011;43052;52.588;13.396;2023-08-17T18:16:25;5.85;;;4.40;;
57191;SDS011;43052;52.588;13.396;2023-08-17T18:19:00;6.50;;;4.03;;
57191;SDS011;43052;52.588;13.396;2023-08-17T18:21:54;5.18;;;4.00;;
57191;SDS011;43052;52.588;13.396;2023-08-17T18:24:19;5.80;;;4.20;;
57191;SDS011;43052;52.588;13.396;2023-08-17T18:26:47;5.22;;;4.13;;
57191;SDS011;43052;52.588;13.396;2023-08-17T18:29:35;4.40;;;3.70;;
57191;SDS011;43052;52.588;13.396;2023-08-17T18:37:26;7.07;;;4.32;;
57191;SDS011;43052;52.588;13.396;2023-08-17T18:39:59;5.75;;;3.45;;
57191;SDS011;43052;52.588;13.396;2023-08-17T18:42:24;5.40;;;3.70;;
57191;SDS011;43052;52.588;13.396;2023-08-17T18:47:48;7.38;;;4.53;;
57191;SDS011;43052;52.588;13.396;2023-08-17T18:50:25;4.70;;;3.85;;
57191;SDS011;43052;52.588;13.396;2023-08-17T18:52:55;6.20;;;4.43;;
57191;SDS011;43052;52.588;13.396;2023-08-17T18:58:33;5.13;;;3.83;;
57191;SDS011;43052;52.588;13.396;2023-08-17T19:01:04;6.63;;;3.95;;
57191;SDS011;43052;52.588;13.396;2023-08-17T19:03:30;5.28;;;3.95;;
57191;SDS011;43052;52.588;13.396;2023-08-17T19:05:55;5.72;;;4.00;;